Time;durP1;ratioP1;P1;durP2;ratioP2;P2;SDS_P1;SDS_P2;PMS_P1;PMS_P2;Temp;Humidity;BMP_temperature;BMP_pressure;BME280_temperature;BME280_humidity;BME280_pressure;Samples;Min_cycle;Max_cycle;Signal;HPM_P1;HPM_P2
2023/05/06 00:02:03;;;;;;;1.97;1.20;;;11.30;71.60;;;;;;5019325;28;20252;-64
2023/05/06 00:04:30;;;;;;;1.70;1.20;;;11.30;71.20;;;;;;5027374;28;20256;-64
2023/05/06 00:06:57;;;;;;;1.60;1.27;;;11.30;70.90;;;;;;4998770;28;20348;-63
2023/05/06 00:09:24;;;;;;;2.17;1.23;;;11.20;70.70;;;;;;5006431;28;20787;-63
2023/05/06 00:11:51;;;;;;;2.23;1.60;;;11.20;70.40;;;;;;4994497;28;20210;-63
2023/05/06 00:14:20;;;;;;;1.43;1.17;;;11.20;70.10;;;;;;5007211;28;20199;-63
2023/05/06 00:16:47;;;;;;;4.23;1.80;;;11.20;69.70;;;;;;5005591;28;20275;-64
2023/05/06 00:19:14;;;;;;;2.30;1.47;;;11.20;69.10;;;;;;5006001;28;20210;-64
2023/05/06 00:21:41;;;;;;;1.37;1.27;;;11.20;68.90;;;;;;5009401;28;20282;-63
2023/05/06 00:24:08;;;;;;;1.63;1.50;;;11.20;68.80;;;;;;5001393;28;20613;-63
2023/05/06 00:26:35;;;;;;;1.97;1.33;;;11.20;68.60;;;;;;5011691;28;20225;-63
2023/05/06 00:29:02;;;;;;;1.27;1.17;;;11.20;68.30;;;;;;5030230;28;20226;-63
2023/05/06 00:31:31;;;;;;;2.77;1.50;;;11.20;67.80;;;;;;5011235;28;20222;-63
2023/05/06 00:33:58;;;;;;;1.87;1.30;;;11.10;67.20;;;;;;4992486;28;20297;-63
2023/05/06 00:36:25;;;;;;;1.27;1.10;;;11.10;66.80;;;;;;5007255;28;20456;-64
2023/05/06 00:38:52;;;;;;;1.23;1.20;;;11.20;66.70;;;;;;4995757;28;20240;-64
2023/05/06 00:41:19;;;;;;;1.90;1.70;;;11.20;66.30;;;;;;5012723;28;20279;-64
2023/05/06 00:43:46;;;;;;;1.30;1.00;;;11.10;65.40;;;;;;5011659;28;20792;-63
2023/05/06 00:46:16;;;;;;;3.27;1.33;;;11.20;65.20;;;;;;4994042;28;20208;-64
2023/05/06 00:48:45;;;;;;;1.50;1.10;;;11.10;64.80;;;;;;4997922;28;20199;-63
2023/05/06 00:51:13;;;;;;;1.00;1.00;;;11.10;64.60;;;;;;4994988;28;20210;-64
2023/05/06 00:53:40;;;;;;;1.50;1.40;;;11.10;64.10;;;;;;5012223;28;20214;-63
2023/05/06 00:56:08;;;;;;;1.60;1.50;;;11.10;63.90;;;;;;5009160;28;20206;-65
2023/05/06 00:58:42;;;;;;;2.93;1.60;;;11.10;63.90;;;;;;5011127;28;20675;-63
2023/05/06 01:01:09;;;;;;;3.07;1.77;;;11.10;63.80;;;;;;5010058;28;20200;-64
2023/05/06 01:03:36;;;;;;;2.00;1.40;;;11.10;63.30;;;;;;4997480;28;20650;-64
2023/05/06 01:06:12;;;;;;;4.23;2.00;;;11.10;63.00;;;;;;5011809;28;20611;-64
2023/05/06 01:08:46;;;;;;;3.40;2.17;;;11.00;62.70;;;;;;5010141;28;20673;-64
2023/05/06 01:11:20;;;;;;;2.97;1.93;;;11.00;62.50;;;;;;5014688;28;20197;-64
2023/05/06 01:13:52;;;;;;;4.20;2.23;;;10.90;62.50;;;;;;5032746;28;20246;-64
2023/05/06 01:16:25;;;;;;;3.23;1.80;;;10.90;62.40;;;;;;5014413;28;20202;-63
2023/05/06 01:18:54;;;;;;;3.60;1.90;;;10.90;62.40;;;;;;5012916;28;20294;-64
2023/05/06 01:21:25;;;;;;;1.47;1.23;;;10.90;62.10;;;;;;5010350;28;20245;-64
2023/05/06 01:23:57;;;;;;;2.33;1.60;;;10.80;61.70;;;;;;5011571;28;20197;-64
2023/05/06 01:26:25;;;;;;;1.37;1.07;;;10.80;61.90;;;;;;5011177;28;20195;-64
2023/05/06 01:28:52;;;;;;;1.40;1.30;;;10.70;62.00;;;;;;5011517;28;20217;-64
2023/05/06 01:31:25;;;;;;;1.83;1.30;;;10.70;61.90;;;;;;4991688;28;20227;-64
2023/05/06 01:34:05;;;;;;;1.87;1.20;;;10.70;61.70;;;;;;4997863;28;20579;-64
2023/05/06 01:36:39;;;;;;;1.80;1.23;;;10.70;61.40;;;;;;5010771;28;20643;-63
2023/05/06 01:39:15;;;;;;;2.20;1.50;;;10.70;61.20;;;;;;5009604;28;20193;-64
2023/05/06 01:41:44;;;;;;;2.20;1.40;;;10.70;60.90;;;;;;5010408;28;20195;-64
2023/05/06 01:44:12;;;;;;;2.30;1.73;;;10.70;60.80;;;;;;4999063;28;20535;-64
2023/05/06 01:46:42;;;;;;;2.33;1.67;;;10.70;60.70;;;;;;4996939;28;20210;-64
2023/05/06 01:49:11;;;;;;;4.10;2.30;;;10.70;60.50;;;;;;5008278;28;20203;-64
2023/05/06 01:51:38;;;;;;;3.83;2.10;;;10.70;60.20;;;;;;5010965;28;20198;-64
2023/05/06 01:54:06;;;;;;;2.87;2.20;;;10.70;59.90;;;;;;5009976;28;20206;-63
2023/05/06 01:56:34;;;;;;;2.10;1.90;;;10.70;59.90;;;;;;5001888;28;20654;-63
2023/05/06 01:59:01;;;;;;;3.40;2.43;;;10.60;59.80;;;;;;5010669;28;20205;-64
2023/05/06 02:01:28;;;;;;;2.80;2.00;;;10.50;59.70;;;;;;4996756;28;20206;-63
2023/05/06 02:03:56;;;;;;;2.23;2.00;;;10.60;59.80;;;;;;5007169;28;20229;-64
2023/05/06 02:06:23;;;;;;;2.70;2.00;;;10.60;59.80;;;;;;4990051;28;20452;-64
2023/05/06 02:08:50;;;;;;;3.40;2.27;;;10.60;59.70;;;;;;5010025;28;20643;-64
2023/05/06 02:11:21;;;;;;;4.37;2.23;;;10.60;59.50;;;;;;5007102;28;20202;-64
2023/05/06 02:13:51;;;;;;;3.33;2.20;;;10.50;59.00;;;;;;5001790;28;20309;-63
2023/05/06 02:16:20;;;;;;;1.93;1.70;;;10.50;59.00;;;;;;5012588;28;20689;-64
2023/05/06 02:18:48;;;;;;;2.20;1.83;;;10.40;59.00;;;;;;5012149;28;20296;-62
2023/05/06 02:21:15;;;;;;;1.97;1.73;;;10.40;59.20;;;;;;5000898;28;20226;-64
2023/05/06 02:23:43;;;;;;;1.53;1.43;;;10.40;59.20;;;;;;4992366;28;20282;-63
2023/05/06 02:26:10;;;;;;;3.40;1.67;;;10.40;59.30;;;;;;4992397;28;20601;-63
2023/05/06 02:28:37;;;;;;;2.60;1.90;;;10.40;59.30;;;;;;5006884;28;20745;-64
2023/05/06 02:31:06;;;;;;;3.47;2.30;;;10.40;59.20;;;;;;5007286;28;20666;-64
2023/05/06 02:33:33;;;;;;;3.43;2.10;;;10.40;59.10;;;;;;4996349;28;20402;-64
2023/05/06 02:36:00;;;;;;;3.53;1.93;;;10.40;59.10;;;;;;5030515;28;20204;-63
2023/05/06 02:38:27;;;;;;;2.10;1.90;;;10.40;59.10;;;;;;5013430;28;20217;-64
2023/05/06 02:40:54;;;;;;;3.53;1.90;;;10.30;59.20;;;;;;5026166;28;20207;-64
2023/05/06 02:43:21;;;;;;;2.20;1.80;;;10.30;59.30;;;;;;5013786;28;20218;-64
2023/05/06 02:45:49;;;;;;;5.47;2.23;;;10.30;59.30;;;;;;5012211;28;20682;-63
2023/05/06 02:48:17;;;;;;;3.07;1.70;;;10.20;59.20;;;;;;5020069;28;20642;-63
2023/05/06 02:50:44;;;;;;;3.33;2.20;;;10.20;59.40;;;;;;5006358;28;20222;-63
2023/05/06 02:53:12;;;;;;;3.10;1.93;;;10.20;59.30;;;;;;5026206;28;20689;-64
2023/05/06 02:55:39;;;;;;;2.90;1.90;;;10.20;59.10;;;;;;5025547;28;20204;-62
2023/05/06 02:58:06;;;;;;;2.77;2.10;;;10.30;58.90;;;;;;5031307;28;20219;-63
2023/05/06 03:00:33;;;;;;;3.27;2.00;;;10.30;58.70;;;;;;5030807;28;20217;-64
2023/05/06 03:03:00;;;;;;;2.37;1.70;;;10.30;58.60;;;;;;5009298;28;20286;-62
2023/05/06 03:05:29;;;;;;;2.17;1.57;;;10.30;58.70;;;;;;5027295;28;20300;-63
2023/05/06 03:07:56;;;;;;;2.20;1.60;;;10.30;58.50;;;;;;5031432;28;20206;-63
2023/05/06 03:10:24;;;;;;;1.20;1.10;;;10.30;58.60;;;;;;5009245;28;20239;-63
2023/05/06 03:12:51;;;;;;;1.53;1.43;;;10.30;58.50;;;;;;5030702;28;20308;-63
2023/05/06 03:15:18;;;;;;;1.50;1.33;;;10.30;58.40;;;;;;5013340;28;20299;-63
2023/05/06 03:17:46;;;;;;;2.33;1.47;;;10.30;58.30;;;;;;5004694;28;20208;-63
2023/05/06 03:20:14;;;;;;;4.53;1.80;;;10.30;58.10;;;;;;5012933;28;20762;-63
2023/05/06 03:22:48;;;;;;;2.70;1.93;;;10.30;58.60;;;;;;5007626;28;20199;-63
2023/05/06 03:25:16;;;;;;;1.50;1.40;;;10.30;57.90;;;;;;5006995;28;20230;-63
2023/05/06 03:27:43;;;;;;;1.30;1.20;;;10.30;57.90;;;;;;5012949;28;20210;-63
2023/05/06 03:30:17;;;;;;;1.10;1.10;;;10.40;58.50;;;;;;5017296;28;20196;-63
2023/05/06 03:32:45;;;;;;;1.90;1.80;;;10.40;58.00;;;;;;5006557;28;20217;-63
2023/05/06 03:35:16;;;;;;;1.70;1.60;;;10.40;57.90;;;;;;5011780;28;20214;-63
2023/05/06 03:37:49;;;;;;;2.07;1.87;;;10.40;57.90;;;;;;5009207;28;20200;-63
2023/05/06 03:40:17;;;;;;;2.20;1.43;;;10.70;58.20;;;;;;5013866;28;20217;-64
2023/05/06 03:42:45;;;;;;;2.17;1.40;;;10.40;58.00;;;;;;5012410;28;20287;-63
2023/05/06 03:45:13;;;;;;;4.33;1.50;;;10.40;58.10;;;;;;5008012;28;20213;-63
2023/05/06 03:47:40;;;;;;;7.90;2.93;;;10.40;58.00;;;;;;5028384;28;20252;-63
2023/05/06 03:50:10;;;;;;;2.47;2.17;;;10.40;57.90;;;;;;5012319;28;20218;-64
2023/05/06 03:52:39;;;;;;;1.90;1.80;;;10.40;57.90;;;;;;5002029;28;20229;-63
2023/05/06 03:55:08;;;;;;;1.60;1.50;;;10.40;57.90;;;;;;5010316;28;20700;-63
2023/05/06 03:57:36;;;;;;;1.67;1.40;;;10.30;58.30;;;;;;5029708;28;20198;-64
2023/05/06 04:00:06;;;;;;;3.87;1.80;;;10.40;58.10;;;;;;5011504;28;20195;-64
2023/05/06 04:02:43;;;;;;;1.33;1.23;;;10.40;58.20;;;;;;5022389;28;20198;-64
2023/05/06 04:05:16;;;;;;;3.23;1.40;;;10.50;58.10;;;;;;5003551;28;20663;-64
2023/05/06 04:07:44;;;;;;;1.63;1.40;;;10.50;58.10;;;;;;4994945;28;20210;-63
2023/05/06 04:10:13;;;;;;;3.03;1.30;;;10.40;58.00;;;;;;5024177;28;20203;-63
2023/05/06 04:12:44;;;;;;;1.40;1.30;;;10.40;57.90;;;;;;5017684;28;20214;-63
2023/05/06 04:15:14;;;;;;;1.40;1.30;;;10.40;57.70;;;;;;5005508;28;20201;-63
2023/05/06 04:17:42;;;;;;;1.00;1.00;;;10.40;57.70;;;;;;4992788;28;20787;-64
2023/05/06 04:20:10;;;;;;;1.33;1.00;;;10.50;57.70;;;;;;4989682;28;20225;-64
2023/05/06 04:22:39;;;;;;;1.10;1.00;;;10.50;57.70;;;;;;4999649;28;20238;-63
2023/05/06 04:25:08;;;;;;;1.20;1.10;;;10.50;57.60;;;;;;5016312;28;20307;-63
2023/05/06 04:27:38;;;;;;;1.47;1.37;;;10.60;57.70;;;;;;5015342;28;20202;-64
2023/05/06 04:30:09;;;;;;;1.67;1.20;;;10.60;57.60;;;;;;5003958;28;20536;-64
2023/05/06 04:32:37;;;;;;;1.50;1.30;;;10.70;57.60;;;;;;5009389;28;20195;-63
2023/05/06 04:35:07;;;;;;;1.13;0.93;;;10.70;57.40;;;;;;5032864;28;20600;-63
2023/05/06 04:37:34;;;;;;;1.20;1.10;;;10.70;57.40;;;;;;4998794;28;20199;-63
2023/05/06 04:40:13;;;;;;;0.90;0.90;;;10.70;57.30;;;;;;4995615;28;20203;-63
2023/05/06 04:42:44;;;;;;;2.20;1.40;;;10.70;57.20;;;;;;4996873;28;20612;-64
2023/05/06 04:45:17;;;;;;;1.80;1.20;;;10.70;56.90;;;;;;5009170;28;20212;-63
2023/05/06 04:47:47;;;;;;;2.97;1.37;;;10.70;56.90;;;;;;5007212;28;20251;-64
2023/05/06 04:50:16;;;;;;;1.77;1.00;;;10.70;56.70;;;;;;5002423;28;20200;-63
2023/05/06 04:52:43;;;;;;;1.30;1.30;;;10.70;56.50;;;;;;4992654;28;20229;-64
2023/05/06 04:55:11;;;;;;;1.57;1.03;;;10.70;56.20;;;;;;4994536;28;20234;-63
2023/05/06 04:57:44;;;;;;;0.90;0.90;;;10.70;56.20;;;;;;5005897;28;20277;-64
2023/05/06 05:00:13;;;;;;;2.10;1.20;;;10.70;56.30;;;;;;5023994;28;20198;-62
2023/05/06 05:02:40;;;;;;;2.83;1.23;;;10.70;56.20;;;;;;5027478;28;20227;-62
2023/05/06 05:05:08;;;;;;;4.57;1.10;;;10.70;56.20;;;;;;5016079;28;20653;-63
2023/05/06 05:07:36;;;;;;;1.10;1.00;;;10.70;56.10;;;;;;4994460;28;20210;-63
2023/05/06 05:10:03;;;;;;;0.70;0.70;;;10.80;56.10;;;;;;5005601;28;20302;-63
2023/05/06 05:12:32;;;;;;;1.40;0.87;;;10.80;56.10;;;;;;4994491;28;20271;-64
2023/05/06 05:15:04;;;;;;;0.80;0.80;;;10.80;56.00;;;;;;4988782;28;20217;-62
2023/05/06 05:17:31;;;;;;;0.80;0.80;;;10.90;56.10;;;;;;4986959;28;20679;-63
2023/05/06 05:19:59;;;;;;;1.47;1.20;;;10.90;56.20;;;;;;4992790;28;20203;-63
2023/05/06 05:22:27;;;;;;;1.67;1.10;;;10.90;56.00;;;;;;4995503;28;20199;-63
2023/05/06 05:24:54;;;;;;;4.53;0.90;;;11.00;55.90;;;;;;4996465;28;20205;-64
2023/05/06 05:27:22;;;;;;;2.37;1.13;;;11.00;55.90;;;;;;5032213;28;20198;-63
2023/05/06 05:29:49;;;;;;;0.80;0.80;;;11.00;55.70;;;;;;5015469;28;20209;-63
2023/05/06 05:32:18;;;;;;;6.17;1.03;;;11.00;56.10;;;;;;5000839;28;20667;-63
2023/05/06 05:34:46;;;;;;;1.57;1.23;;;11.10;56.10;;;;;;5026908;28;20741;-64
2023/05/06 05:37:13;;;;;;;1.57;1.40;;;11.10;55.90;;;;;;5013724;28;20197;-63
2023/05/06 05:39:41;;;;;;;1.60;1.00;;;11.00;55.70;;;;;;5008903;28;20600;-63
2023/05/06 05:42:10;;;;;;;2.13;1.10;;;11.00;55.90;;;;;;4998554;28;20317;-63
2023/05/06 05:44:39;;;;;;;2.70;1.17;;;11.00;56.20;;;;;;5004993;28;20666;-63
2023/05/06 05:47:06;;;;;;;1.40;0.97;;;11.10;56.50;;;;;;5012266;28;20210;-63
2023/05/06 05:49:36;;;;;;;4.57;1.37;;;11.10;56.70;;;;;;5012394;28;20202;-63
2023/05/06 05:52:06;;;;;;;1.37;1.27;;;11.10;57.10;;;;;;4999891;28;20849;-64
2023/05/06 05:54:34;;;;;;;1.23;1.13;;;11.10;57.30;;;;;;5032036;28;20213;-63
2023/05/06 05:57:01;;;;;;;1.13;1.00;;;11.20;57.70;;;;;;5019613;28;20220;-63
2023/05/06 05:59:30;;;;;;;0.90;0.90;;;11.20;57.70;;;;;;5007765;28;20218;-64
2023/05/06 06:02:02;;;;;;;2.13;0.90;;;11.30;58.00;;;;;;4995631;28;20211;-63
2023/05/06 06:04:29;;;;;;;1.77;1.07;;;11.30;58.20;;;;;;5006450;28;20257;-64
2023/05/06 06:07:00;;;;;;;1.37;1.23;;;11.40;58.30;;;;;;4995696;28;20437;-62
2023/05/06 06:09:28;;;;;;;1.10;0.97;;;11.40;58.50;;;;;;5007043;28;20226;-62
2023/05/06 06:11:55;;;;;;;1.30;1.20;;;11.40;58.70;;;;;;5017147;28;20255;-62
2023/05/06 06:14:22;;;;;;;1.40;1.30;;;11.40;58.90;;;;;;5008285;28;20213;-62
2023/05/06 06:16:50;;;;;;;2.07;1.10;;;11.40;58.90;;;;;;4995779;28;20205;-63
2023/05/06 06:19:18;;;;;;;1.93;1.00;;;11.40;58.90;;;;;;5009082;28;20203;-63
2023/05/06 06:21:46;;;;;;;1.40;1.30;;;11.40;59.00;;;;;;5014448;28;20237;-63
2023/05/06 06:24:15;;;;;;;2.10;1.40;;;11.40;58.90;;;;;;5007102;28;20700;-63
2023/05/06 06:26:42;;;;;;;0.90;0.90;;;11.40;58.90;;;;;;5011224;28;20839;-62
2023/05/06 06:29:09;;;;;;;5.13;1.40;;;11.50;59.00;;;;;;4992688;28;20212;-62
2023/05/06 06:31:36;;;;;;;1.60;1.13;;;11.50;59.10;;;;;;4996910;28;20201;-63
2023/05/06 06:34:05;;;;;;;1.17;1.00;;;11.60;59.30;;;;;;5007200;28;20413;-63
2023/05/06 06:36:32;;;;;;;0.97;0.97;;;11.60;59.30;;;;;;5021179;28;20662;-63
2023/05/06 06:38:59;;;;;;;2.23;1.20;;;11.70;59.50;;;;;;5013457;28;20247;-63
2023/05/06 06:41:28;;;;;;;1.30;1.20;;;11.60;59.30;;;;;;5028884;28;20202;-63
2023/05/06 06:43:55;;;;;;;2.50;1.10;;;11.70;59.20;;;;;;5012871;28;20200;-63
2023/05/06 06:46:28;;;;;;;6.30;1.20;;;11.70;59.10;;;;;;5005273;28;20205;-63
2023/05/06 06:48:56;;;;;;;3.40;1.00;;;11.70;59.00;;;;;;5024145;28;20191;-63
2023/05/06 06:51:23;;;;;;;3.83;0.90;;;11.70;59.10;;;;;;5008505;28;20827;-62
2023/05/06 06:53:51;;;;;;;3.10;1.00;;;11.80;59.10;;;;;;5023907;28;20322;-64
2023/05/06 06:56:18;;;;;;;1.27;1.17;;;11.80;59.00;;;;;;5029368;28;20201;-63
2023/05/06 06:58:47;;;;;;;1.20;1.10;;;11.80;58.70;;;;;;5019419;28;20279;-63
2023/05/06 07:01:14;;;;;;;1.03;0.90;;;11.80;58.40;;;;;;4993107;28;20217;-63
2023/05/06 07:03:41;;;;;;;1.43;1.20;;;11.80;58.30;;;;;;4990363;28;20332;-63
2023/05/06 07:06:08;;;;;;;4.20;1.00;;;11.80;58.30;;;;;;4988759;28;20208;-63
2023/05/06 07:08:35;;;;;;;1.33;1.10;;;11.70;58.30;;;;;;5007190;28;20224;-62
2023/05/06 07:11:02;;;;;;;1.93;1.10;;;11.80;58.50;;;;;;5011452;28;20556;-62
2023/05/06 07:13:29;;;;;;;2.73;0.90;;;11.80;58.40;;;;;;5002281;28;20663;-62
2023/05/06 07:15:58;;;;;;;1.73;1.20;;;11.90;58.30;;;;;;4991815;28;20609;-63
2023/05/06 07:18:25;;;;;;;3.93;1.40;;;11.90;58.20;;;;;;5009902;28;20223;-64
2023/05/06 07:20:52;;;;;;;2.83;1.10;;;11.90;58.30;;;;;;5010615;28;20614;-64
2023/05/06 07:23:19;;;;;;;1.10;0.83;;;11.90;58.10;;;;;;4995956;28;20741;-63
2023/05/06 07:25:47;;;;;;;1.07;0.97;;;11.90;58.20;;;;;;4992167;28;20862;-63
2023/05/06 07:28:14;;;;;;;0.97;0.90;;;11.90;58.30;;;;;;4987479;28;20197;-63
2023/05/06 07:30:41;;;;;;;1.07;0.97;;;11.90;58.30;;;;;;4986625;28;20227;-64
2023/05/06 07:33:10;;;;;;;1.93;1.00;;;12.00;58.30;;;;;;4989526;28;20584;-64
2023/05/06 07:35:37;;;;;;;2.60;1.20;;;12.00;58.10;;;;;;4987694;28;20559;-64
2023/05/06 07:38:04;;;;;;;5.60;1.30;;;12.10;58.00;;;;;;4988225;28;20206;-64
2023/05/06 07:40:32;;;;;;;1.30;1.20;;;12.10;57.70;;;;;;4986902;28;20778;-64
2023/05/06 07:42:59;;;;;;;1.40;1.07;;;12.10;57.70;;;;;;4988041;28;20188;-64
2023/05/06 07:45:26;;;;;;;1.50;1.10;;;12.10;57.90;;;;;;4987913;28;20742;-62
2023/05/06 07:47:53;;;;;;;2.17;1.17;;;12.20;58.00;;;;;;4987807;28;20195;-63
2023/05/06 07:50:22;;;;;;;1.00;1.00;;;12.20;57.90;;;;;;4986148;28;20250;-64
2023/05/06 07:52:49;;;;;;;1.20;1.00;;;12.20;57.70;;;;;;4987934;28;20241;-64
2023/05/06 07:55:16;;;;;;;1.20;1.10;;;12.20;57.70;;;;;;5003027;28;20257;-63
2023/05/06 07:57:43;;;;;;;2.60;1.03;;;12.20;57.70;;;;;;4995648;28;20207;-63
2023/05/06 08:00:11;;;;;;;0.97;0.97;;;12.20;57.60;;;;;;5003376;28;20199;-65
2023/05/06 08:02:45;;;;;;;2.40;1.20;;;12.30;57.40;;;;;;5001391;28;20586;-64
2023/05/06 08:05:12;;;;;;;1.63;1.20;;;12.30;57.20;;;;;;4969306;28;20230;-63
2023/05/06 08:07:41;;;;;;;1.60;1.10;;;12.30;56.70;;;;;;4988743;28;20199;-63
2023/05/06 08:10:10;;;;;;;1.20;1.20;;;12.40;56.50;;;;;;4985105;28;20201;-63
2023/05/06 08:12:37;;;;;;;1.33;1.00;;;12.40;56.50;;;;;;4975334;28;20204;-63
2023/05/06 08:15:05;;;;;;;1.30;1.20;;;12.40;56.70;;;;;;4986913;28;20208;-64
2023/05/06 08:17:32;;;;;;;1.33;1.23;;;12.30;56.80;;;;;;4967571;28;20214;-63
2023/05/06 08:19:59;;;;;;;1.00;1.00;;;12.40;57.00;;;;;;4968868;28;20735;-62
2023/05/06 08:22:26;;;;;;;1.00;1.00;;;12.40;57.20;;;;;;4977828;28;20338;-63
2023/05/06 08:24:56;;;;;;;1.00;1.00;;;12.40;57.20;;;;;;4986100;28;20295;-63
2023/05/06 08:27:23;;;;;;;1.33;1.20;;;12.50;57.30;;;;;;4985904;28;20199;-63
2023/05/06 08:29:50;;;;;;;5.37;1.30;;;12.50;57.40;;;;;;4969250;28;20236;-62
2023/05/06 08:32:17;;;;;;;3.73;1.30;;;12.50;57.60;;;;;;4966444;28;20203;-64
2023/05/06 08:34:44;;;;;;;2.17;1.20;;;12.60;58.00;;;;;;4971797;28;20742;-64
2023/05/06 08:37:11;;;;;;;4.93;1.30;;;12.60;58.00;;;;;;4985708;28;20630;-64
2023/05/06 08:39:38;;;;;;;2.60;1.50;;;12.70;58.20;;;;;;4988431;28;20597;-64
2023/05/06 08:42:14;;;;;;;4.00;2.10;;;12.80;57.90;;;;;;4977807;28;20631;-63
2023/05/06 08:44:43;;;;;;;5.30;2.00;;;12.80;57.50;;;;;;4968018;28;20199;-63
2023/05/06 08:47:11;;;;;;;2.57;1.60;;;12.80;57.50;;;;;;4968765;28;20338;-64
2023/05/06 08:49:38;;;;;;;2.03;1.30;;;12.80;57.80;;;;;;4977229;28;20204;-63
2023/05/06 08:52:06;;;;;;;1.70;1.30;;;12.80;58.00;;;;;;4986849;28;20214;-63
2023/05/06 08:54:35;;;;;;;1.40;1.20;;;12.80;57.70;;;;;;4983532;28;20215;-64
2023/05/06 08:57:05;;;;;;;1.97;1.57;;;12.80;57.40;;;;;;4969632;28;20201;-64
2023/05/06 08:59:34;;;;;;;2.97;1.27;;;12.80;57.40;;;;;;4968854;28;20283;-63
2023/05/06 09:02:01;;;;;;;3.30;1.40;;;12.80;56.80;;;;;;4975356;28;20210;-63
2023/05/06 09:04:29;;;;;;;4.83;1.33;;;12.80;56.60;;;;;;5001043;28;20266;-63
2023/05/06 09:06:57;;;;;;;1.63;1.40;;;12.80;56.90;;;;;;5009497;28;20206;-64
2023/05/06 09:09:25;;;;;;;5.53;1.40;;;12.80;57.30;;;;;;5002014;28;20598;-64
2023/05/06 09:11:54;;;;;;;2.57;1.20;;;12.80;57.50;;;;;;4993126;28;20334;-63
2023/05/06 09:14:21;;;;;;;1.20;1.13;;;12.70;57.30;;;;;;4997291;28;20800;-64
2023/05/06 09:16:51;;;;;;;6.90;1.40;;;12.70;57.50;;;;;;5008341;28;20288;-64
2023/05/06 09:19:19;;;;;;;0.80;0.80;;;12.60;57.50;;;;;;5007295;28;20196;-64
2023/05/06 09:21:47;;;;;;;1.10;1.00;;;12.60;57.70;;;;;;4992207;28;20683;-62
2023/05/06 09:24:16;;;;;;;2.73;1.07;;;12.70;57.70;;;;;;4991433;28;20200;-64
2023/05/06 09:26:45;;;;;;;2.63;1.17;;;12.70;57.70;;;;;;4993222;28;20195;-64
2023/05/06 09:29:12;;;;;;;5.27;1.40;;;12.60;57.70;;;;;;4990965;28;20208;-63
2023/05/06 09:31:44;;;;;;;1.80;1.10;;;12.60;57.90;;;;;;5002113;28;20198;-63
2023/05/06 09:34:13;;;;;;;1.00;0.93;;;12.60;58.20;;;;;;5008493;28;20287;-64
2023/05/06 09:36:40;;;;;;;3.50;1.23;;;12.60;58.20;;;;;;5007040;28;20656;-65
2023/05/06 09:39:08;;;;;;;1.23;1.00;;;12.60;57.90;;;;;;4991238;28;20203;-65
2023/05/06 09:41:35;;;;;;;1.23;0.70;;;12.60;57.90;;;;;;4990646;28;20199;-65
2023/05/06 09:44:03;;;;;;;1.10;1.10;;;12.60;58.00;;;;;;4989711;28;20283;-64
2023/05/06 09:46:30;;;;;;;1.40;1.20;;;12.60;58.00;;;;;;4994174;28;20769;-64
2023/05/06 09:48:58;;;;;;;1.90;1.20;;;12.70;58.80;;;;;;4990175;28;20221;-64
2023/05/06 09:51:27;;;;;;;1.53;1.17;;;12.70;58.30;;;;;;4992566;28;21992;-63
2023/05/06 09:53:56;;;;;;;4.07;1.47;;;12.70;58.50;;;;;;4999191;28;20684;-63
2023/05/06 09:56:24;;;;;;;1.93;1.30;;;12.70;58.10;;;;;;5007474;28;20219;-65
2023/05/06 09:58:54;;;;;;;1.67;1.30;;;12.70;58.00;;;;;;5004959;28;20247;-63
2023/05/06 10:01:21;;;;;;;1.80;1.60;;;12.70;57.70;;;;;;4991867;28;20200;-64
2023/05/06 10:03:50;;;;;;;1.93;1.40;;;12.70;57.80;;;;;;4993631;28;20292;-64
2023/05/06 10:06:21;;;;;;;1.73;1.50;;;12.70;57.70;;;;;;4991180;28;20508;-64
2023/05/06 10:08:50;;;;;;;1.83;1.30;;;12.70;57.80;;;;;;4996142;28;20226;-65
2023/05/06 10:11:19;;;;;;;2.67;1.53;;;12.80;58.00;;;;;;5003121;28;20223;-65
2023/05/06 10:13:46;;;;;;;1.87;1.30;;;12.80;58.00;;;;;;5008547;28;20211;-65
2023/05/06 10:16:15;;;;;;;1.60;1.50;;;12.80;58.10;;;;;;4989080;28;20253;-66
2023/05/06 10:18:45;;;;;;;5.37;1.80;;;12.80;58.00;;;;;;4989430;28;20211;-65
2023/05/06 10:21:17;;;;;;;2.03;1.40;;;12.80;57.70;;;;;;4993174;28;20200;-65
2023/05/06 10:23:50;;;;;;;1.67;1.43;;;12.70;57.50;;;;;;4988697;28;20191;-65
2023/05/06 10:26:22;;;;;;;1.43;1.20;;;12.70;57.60;;;;;;4989889;28;20188;-65
2023/05/06 10:28:53;;;;;;;2.43;1.30;;;12.70;57.70;;;;;;5008493;28;20235;-64
2023/05/06 10:31:20;;;;;;;3.33;1.70;;;12.70;57.70;;;;;;5006522;28;20232;-64
2023/05/06 10:33:50;;;;;;;1.97;1.77;;;12.70;57.60;;;;;;5000489;28;20196;-65
2023/05/06 10:36:21;;;;;;;2.90;1.97;;;12.70;57.70;;;;;;4990672;28;20254;-64
2023/05/06 10:38:53;;;;;;;3.60;1.90;;;12.70;57.70;;;;;;4993376;28;20277;-64
2023/05/06 10:41:22;;;;;;;4.70;1.97;;;12.70;58.00;;;;;;4993843;28;20214;-65
2023/05/06 10:43:55;;;;;;;2.30;1.90;;;12.70;58.20;;;;;;4992331;28;20667;-65
2023/05/06 10:46:23;;;;;;;2.43;1.90;;;12.70;58.00;;;;;;5003204;28;20655;-65
2023/05/06 10:49:15;;;;;;;4.43;1.90;;;12.70;58.00;;;;;;5010106;28;20195;-65
2023/05/06 10:51:47;;;;;;;2.87;1.67;;;12.70;58.20;;;;;;5001681;28;20214;-65
2023/05/06 10:54:24;;;;;;;1.70;1.60;;;12.70;58.30;;;;;;4992779;28;20215;-65
2023/05/06 10:57:11;;;;;;;4.00;1.90;;;12.70;58.40;;;;;;4988663;28;20277;-64
2023/05/06 10:59:46;;;;;;;2.63;2.30;;;12.70;58.30;;;;;;4989861;28;20258;-64
2023/05/06 11:02:14;;;;;;;2.80;1.80;;;12.70;58.60;;;;;;4999617;28;20305;-64
2023/05/06 11:04:42;;;;;;;1.47;1.30;;;12.70;58.80;;;;;;5007572;28;20292;-65
2023/05/06 11:07:10;;;;;;;2.60;1.77;;;12.70;58.80;;;;;;5009745;28;20206;-65
2023/05/06 11:09:57;;;;;;;2.30;1.57;;;12.80;59.60;;;;;;5007384;28;20278;-66
2023/05/06 11:12:45;;;;;;;1.67;1.57;;;12.80;59.90;;;;;;5015031;28;20190;-63
2023/05/06 11:15:25;;;;;;;5.10;1.80;;;12.80;59.80;;;;;;5028860;28;20219;-64
2023/05/06 11:17:54;;;;;;;2.10;1.30;;;12.90;59.90;;;;;;5026546;28;20217;-65
2023/05/06 11:20:23;;;;;;;1.97;1.60;;;12.90;59.80;;;;;;5009567;28;20198;-64
2023/05/06 11:22:50;;;;;;;1.67;1.40;;;12.90;59.70;;;;;;5008096;28;20192;-64
2023/05/06 11:25:50;;;;;;;2.33;1.83;;;12.80;59.50;;;;;;5009005;28;20195;-65
2023/05/06 11:28:18;;;;;;;3.13;1.50;;;12.80;59.50;;;;;;5007907;28;20203;-65
2023/05/06 11:30:54;;;;;;;1.97;1.40;;;12.80;59.60;;;;;;5011313;28;20310;-64
2023/05/06 11:33:24;;;;;;;1.67;1.30;;;12.90;59.80;;;;;;5006735;28;20199;-65
2023/05/06 11:35:51;;;;;;;1.70;1.60;;;12.90;60.00;;;;;;5009161;28;20222;-65
2023/05/06 11:38:18;;;;;;;4.20;1.73;;;12.90;60.30;;;;;;5008345;28;20673;-65
2023/05/06 11:40:45;;;;;;;6.60;1.67;;;12.90;60.00;;;;;;5000865;28;20236;-65
2023/05/06 11:43:13;;;;;;;3.07;1.60;;;12.90;60.00;;;;;;5030805;28;20198;-64
2023/05/06 11:45:43;;;;;;;1.93;1.40;;;12.90;60.40;;;;;;5029855;28;20209;-64
2023/05/06 11:48:15;;;;;;;3.40;1.37;;;12.90;60.70;;;;;;5015005;28;20249;-64
2023/05/06 11:50:46;;;;;;;2.10;1.20;;;12.90;62.00;;;;;;4991268;28;20203;-65
2023/05/06 11:53:14;;;;;;;1.63;1.20;;;12.90;62.40;;;;;;5008084;28;20195;-64
2023/05/06 11:55:42;;;;;;;1.60;1.37;;;12.90;62.60;;;;;;5008493;28;20222;-64
2023/05/06 11:58:13;;;;;;;1.50;1.40;;;12.90;63.60;;;;;;5009691;28;20235;-64
2023/05/06 12:00:49;;;;;;;1.80;1.23;;;12.90;64.50;;;;;;5030007;28;20190;-65
2023/05/06 12:03:16;;;;;;;3.13;1.60;;;13.00;64.50;;;;;;5029058;28;20731;-65
2023/05/06 12:05:43;;;;;;;1.30;1.20;;;13.00;64.90;;;;;;5015304;28;20662;-65
2023/05/06 12:08:12;;;;;;;1.40;1.30;;;13.10;64.80;;;;;;5009516;28;20199;-64
2023/05/06 12:10:39;;;;;;;2.67;1.53;;;13.10;64.60;;;;;;4994013;28;20203;-64
2023/05/06 12:13:07;;;;;;;2.30;1.27;;;13.10;64.40;;;;;;5014805;28;20275;-64
2023/05/06 12:15:34;;;;;;;1.30;1.20;;;13.10;64.00;;;;;;5023261;28;20223;-64
2023/05/06 12:18:04;;;;;;;1.27;1.20;;;13.10;64.30;;;;;;5010878;28;20298;-65
2023/05/06 12:20:31;;;;;;;1.50;1.40;;;13.10;64.30;;;;;;5010587;28;20199;-65
2023/05/06 12:23:06;;;;;;;1.87;1.53;;;13.20;64.40;;;;;;5008181;28;20195;-64
2023/05/06 12:25:33;;;;;;;2.27;1.10;;;13.20;63.90;;;;;;4992608;28;20239;-64
2023/05/06 12:28:00;;;;;;;1.50;1.40;;;13.20;63.60;;;;;;5006478;28;20195;-64
2023/05/06 12:30:31;;;;;;;1.40;1.23;;;13.20;63.70;;;;;;4996128;28;20203;-65
2023/05/06 12:32:58;;;;;;;2.93;1.37;;;13.20;63.80;;;;;;5006393;28;20200;-64
2023/05/06 12:35:28;;;;;;;8.13;1.60;;;13.20;64.80;;;;;;5028958;28;20215;-65
2023/05/06 12:37:55;;;;;;;1.83;1.37;;;13.20;63.80;;;;;;5034075;28;20199;-65
2023/05/06 12:40:22;;;;;;;2.80;1.87;;;13.20;63.20;;;;;;5026523;28;20205;-64
2023/05/06 12:42:54;;;;;;;2.90;1.27;;;13.30;62.60;;;;;;4997449;28;20210;-65
2023/05/06 12:45:22;;;;;;;2.37;1.40;;;13.30;62.60;;;;;;5012143;28;20239;-65
2023/05/06 12:47:53;;;;;;;2.80;1.60;;;13.40;62.50;;;;;;5027194;28;20299;-64
2023/05/06 12:50:36;;;;;;;1.77;1.40;;;13.40;62.00;;;;;;5033485;28;20229;-64
2023/05/06 12:53:04;;;;;;;1.40;1.23;;;13.40;61.80;;;;;;4998504;28;20276;-65
2023/05/06 12:55:32;;;;;;;2.10;1.50;;;13.40;61.80;;;;;;5011844;28;22134;-65
2023/05/06 12:57:59;;;;;;;2.00;1.57;;;13.40;62.10;;;;;;5011696;28;20195;-65